Time;durP1;ratioP1;P1;durP2;ratioP2;P2;SDS_P1;SDS_P2;PMS_P1;PMS_P2;Temp;Humidity;BMP_temperature;BMP_pressure;BME280_temperature;BME280_humidity;BME280_pressure;Samples;Min_cycle;Max_cycle;Signal;HPM_P1;HPM_P2
2022/05/30 00:00:07;;;;;;;3.78;1.55;;;;;;;8.60;88.97;100550.97;6061723;28;20037;-67
2022/05/30 00:03:03;;;;;;;5.22;1.40;;;;;;;8.62;88.50;100555.13;6050612;28;20026;-67
2022/05/30 00:05:58;;;;;;;4.93;1.63;;;;;;;8.65;88.50;100554.03;6049387;28;20033;-67
2022/05/30 00:08:53;;;;;;;7.00;1.80;;;;;;;8.56;88.14;100554.88;6050905;28;20500;-66
2022/05/30 00:11:50;;;;;;;5.37;1.37;;;;;;;8.50;88.15;100550.13;6049753;28;20025;-67
2022/05/30 00:14:45;;;;;;;11.75;2.22;;;;;;;8.51;88.71;100554.41;6050927;28;20045;-67
2022/05/30 00:17:40;;;;;;;8.20;2.33;;;;;;;8.50;89.06;100545.69;6051523;28;20060;-67
2022/05/30 00:20:36;;;;;;;8.70;1.77;;;;;;;8.56;88.82;100550.41;6048866;28;20037;-67
2022/05/30 00:23:32;;;;;;;5.32;1.55;;;;;;;8.59;89.08;100559.88;6058016;28;20081;-67
2022/05/30 00:26:27;;;;;;;7.20;1.80;;;;;;;8.53;88.63;100552.50;6051332;28;20474;-67
2022/05/30 00:29:23;;;;;;;6.57;1.80;;;;;;;8.56;89.15;100557.53;6055459;28;20034;-67
2022/05/30 00:32:18;;;;;;;8.25;1.58;;;;;;;8.56;89.59;100558.31;6050329;28;20133;-67
2022/05/30 00:35:14;;;;;;;11.03;2.60;;;;;;;8.56;89.87;100560.97;6049462;28;20041;-67
2022/05/30 00:38:10;;;;;;;7.93;1.63;;;;;;;8.54;89.41;100547.06;6048760;28;20034;-67
2022/05/30 00:41:06;;;;;;;7.72;2.25;;;;;;;8.58;90.24;100566.13;6046878;28;20061;-67
2022/05/30 00:44:02;;;;;;;10.65;2.20;;;;;;;8.54;89.65;100551.50;6048606;28;20080;-67
2022/05/30 00:46:57;;;;;;;7.45;1.92;;;;;;;8.61;90.44;100564.06;6056074;28;20034;-66
2022/05/30 00:49:54;;;;;;;5.00;2.00;;;;;;;8.57;90.54;100556.53;6052406;28;20038;-67
2022/05/30 00:52:50;;;;;;;4.63;2.15;;;;;;;8.55;90.58;100558.47;6053804;28;20022;-67
2022/05/30 00:55:46;;;;;;;7.00;2.85;;;;;;;8.46;91.24;100554.00;6055528;28;20048;-67
2022/05/30 00:58:51;;;;;;;7.97;2.20;;;;;;;8.43;91.18;100543.69;6067738;28;20120;-67
2022/05/30 01:01:46;;;;;;;7.65;2.20;;;;;;;8.47;91.36;100545.13;6050673;28;20060;-67
2022/05/30 01:07:57;;;;;;;12.20;2.83;;;;;;;8.47;91.04;100550.41;6050970;28;20037;-67
2022/05/30 01:10:52;;;;;;;11.25;2.70;;;;;;;8.45;90.35;100544.41;6052145;28;20431;-64
2022/05/30 01:13:48;;;;;;;11.90;3.33;;;;;;;8.37;90.73;100545.91;6052386;28;20033;-67
2022/05/30 01:16:43;;;;;;;5.47;2.30;;;;;;;8.34;90.26;100535.63;6052055;28;20026;-67
2022/05/30 01:19:46;;;;;;;9.23;3.00;;;;;;;8.36;91.12;100538.13;6051677;28;20053;-66
2022/05/30 01:23:04;;;;;;;6.97;2.75;;;;;;;8.38;91.24;100533.56;6052456;28;20116;-66
2022/05/30 01:26:03;;;;;;;14.10;3.10;;;;;;;8.50;91.64;100550.13;6052094;28;20484;-66
2022/05/30 01:29:15;;;;;;;6.60;2.17;;;;;;;8.38;91.77;100544.97;6051868;28;20047;-66
2022/05/30 01:32:10;;;;;;;8.85;2.33;;;;;;;8.22;90.29;100547.25;6054975;28;20045;-67
2022/05/30 01:35:06;;;;;;;3.87;1.80;;;;;;;8.21;89.84;100542.09;6050339;28;20073;-66
2022/05/30 01:38:01;;;;;;;6.28;2.25;;;;;;;8.12;90.10;100530.56;6052660;28;20057;-66
2022/05/30 01:40:57;;;;;;;6.63;1.70;;;;;;;8.13;90.19;100540.13;6052889;28;20084;-66
2022/05/30 01:43:52;;;;;;;4.78;1.80;;;;;;;8.07;90.10;100543.31;6057453;28;20133;-67
2022/05/30 01:46:47;;;;;;;11.07;2.43;;;;;;;8.01;89.97;100533.31;6062007;28;20116;-66
2022/05/30 01:49:43;;;;;;;4.33;1.37;;;;;;;8.06;90.35;100546.94;6064080;28;20109;-66
2022/05/30 01:52:38;;;;;;;8.38;1.88;;;;;;;8.04;89.91;100538.31;6052948;28;20029;-67
2022/05/30 01:55:34;;;;;;;2.47;1.50;;;;;;;8.01;90.26;100543.88;6055450;28;20037;-67
2022/05/30 01:58:32;;;;;;;3.40;1.33;;;;;;;7.96;90.16;100535.50;6058411;28;20037;-67
2022/05/30 02:01:28;;;;;;;7.70;1.85;;;;;;;8.11;90.42;100536.78;6053951;28;20108;-66
2022/05/30 02:04:23;;;;;;;7.35;1.52;;;;;;;8.17;90.39;100544.19;6054517;28;20033;-66
2022/05/30 02:07:19;;;;;;;5.80;1.50;;;;;;;8.10;89.95;100532.47;6052739;28;20034;-66
2022/05/30 02:10:14;;;;;;;6.35;2.00;;;;;;;8.15;90.62;100535.53;6056572;28;20037;-66
2022/05/30 02:13:09;;;;;;;7.17;2.00;;;;;;;8.13;90.93;100542.78;6058173;28;20038;-67
2022/05/30 02:19:21;;;;;;;4.40;1.60;;;;;;;8.14;90.74;100531.25;6045209;28;20065;-66
2022/05/30 02:22:20;;;;;;;5.00;1.15;;;;;;;8.09;89.97;100540.53;6057946;28;20120;-66
2022/05/30 02:25:16;;;;;;;5.80;1.30;;;;;;;8.06;89.99;100544.28;6060664;28;20052;-67
2022/05/30 02:28:11;;;;;;;5.80;1.40;;;;;;;7.97;90.37;100545.09;6052994;28;20045;-66
2022/05/30 02:31:06;;;;;;;10.73;1.63;;;;;;;7.95;90.21;100544.38;6051209;28;20038;-66
2022/05/30 02:37:16;;;;;;;6.75;1.73;;;;;;;8.01;89.46;100543.88;6051655;28;20061;-67
2022/05/30 02:40:11;;;;;;;3.63;1.48;;;;;;;7.97;89.51;100531.88;6053756;28;20116;-66
2022/05/30 02:43:06;;;;;;;10.03;1.50;;;;;;;7.99;89.95;100537.03;6060228;28;20041;-67
2022/05/30 02:46:02;;;;;;;3.60;1.00;;;;;;;8.17;89.71;100538.06;6052770;28;20432;-67
2022/05/30 02:48:57;;;;;;;3.93;1.10;;;;;;;8.01;89.48;100538.59;6051259;28;20061;-67
2022/05/30 02:51:53;;;;;;;6.57;1.20;;;;;;;8.05;90.19;100539.13;6050614;28;20034;-66
2022/05/30 02:54:48;;;;;;;7.13;1.38;;;;;;;7.90;88.90;100530.75;6054531;28;20096;-67
2022/05/30 02:57:43;;;;;;;9.50;1.53;;;;;;;7.96;89.23;100546.06;6041152;28;20040;-66
2022/05/30 03:00:39;;;;;;;5.73;1.23;;;;;;;7.97;88.47;100537.16;6052954;28;20400;-67
2022/05/30 03:03:34;;;;;;;3.93;1.33;;;;;;;7.97;88.76;100552.16;6061333;28;20065;-66
2022/05/30 03:06:29;;;;;;;9.03;1.60;;;;;;;7.99;88.73;100545.78;6057587;28;20398;-66
2022/05/30 03:09:24;;;;;;;5.67;1.10;;;;;;;7.98;88.90;100541.47;6050862;28;20033;-67
2022/05/30 03:12:20;;;;;;;3.87;1.40;;;;;;;8.00;88.93;100547.47;6056297;28;20052;-66
2022/05/30 03:15:15;;;;;;;6.80;1.20;;;;;;;8.06;88.34;100544.28;6050885;28;20066;-67
2022/05/30 03:18:11;;;;;;;7.60;1.87;;;;;;;7.97;88.32;100542.44;6050826;28;20037;-67
2022/05/30 03:21:06;;;;;;;7.27;1.60;;;;;;;7.94;88.92;100548.00;6051950;28;20910;-66
2022/05/30 03:24:01;;;;;;;7.30;1.67;;;;;;;8.02;89.45;100556.06;6051798;28;20041;-66
2022/05/30 03:26:57;;;;;;;6.43;1.70;;;;;;;8.01;88.99;100551.78;6050665;28;20434;-67
2022/05/30 03:29:52;;;;;;;4.83;1.30;;;;;;;8.17;89.37;100554.75;6056495;28;20049;-66
2022/05/30 03:32:48;;;;;;;7.30;1.70;;;;;;;8.15;89.46;100556.66;6056490;28;20038;-67
2022/05/30 03:35:43;;;;;;;11.60;1.67;;;;;;;8.10;89.45;100552.78;6058107;28;20373;-66
2022/05/30 03:38:38;;;;;;;6.87;1.83;;;;;;;8.16;89.70;100552.22;6068299;28;20034;-67
2022/05/30 03:41:34;;;;;;;6.73;1.90;;;;;;;8.07;89.97;100553.88;6052149;28;20033;-67
2022/05/30 03:44:29;;;;;;;6.77;2.33;;;;;;;8.06;89.78;100556.66;6050548;28;20088;-67
2022/05/30 03:47:24;;;;;;;12.10;1.67;;;;;;;8.18;89.76;100561.69;6058893;28;20037;-67
2022/05/30 03:50:24;;;;;;;7.17;1.50;;;;;;;8.29;89.20;100569.53;6053108;28;20037;-66
2022/05/30 03:53:19;;;;;;;6.75;2.22;;;;;;;8.28;89.38;100564.41;6056398;28;20080;-67
2022/05/30 03:56:14;;;;;;;9.33;2.00;;;;;;;8.32;89.58;100564.00;6050484;28;20030;-66
2022/05/30 03:59:09;;;;;;;8.73;1.90;;;;;;;8.28;89.81;100564.41;6049802;28;20037;-66
2022/05/30 04:02:05;;;;;;;7.63;1.90;;;;;;;8.23;89.54;100562.16;6064329;28;20025;-66
2022/05/30 04:05:00;;;;;;;5.33;1.80;;;;;;;8.26;90.18;100553.91;6055851;28;20126;-67
2022/05/30 04:07:55;;;;;;;4.68;1.50;;;;;;;8.40;90.34;100562.50;6049964;28;20039;-67
2022/05/30 04:10:51;;;;;;;7.20;2.70;;;;;;;8.45;90.03;100563.75;6053054;28;20041;-66
2022/05/30 04:13:46;;;;;;;6.10;1.85;;;;;;;8.52;89.25;100564.03;6052761;28;20029;-66
2022/05/30 04:16:42;;;;;;;8.70;1.80;;;;;;;8.44;88.99;100562.06;6050672;28;20421;-67
2022/05/30 04:19:37;;;;;;;6.97;1.50;;;;;;;8.42;89.86;100568.47;6054959;28;20048;-67
2022/05/30 04:22:32;;;;;;;7.67;2.20;;;;;;;8.42;89.82;100556.09;6059763;28;20033;-67
2022/05/30 04:25:28;;;;;;;7.25;1.90;;;;;;;8.42;90.74;100564.03;6050451;28;20034;-67
2022/05/30 04:28:23;;;;;;;6.77;1.67;;;;;;;8.43;90.98;100568.31;6049763;28;20048;-66
2022/05/30 04:31:18;;;;;;;6.67;1.53;;;;;;;8.43;90.81;100575.41;6051026;28;20036;-67
2022/05/30 04:34:14;;;;;;;7.65;2.35;;;;;;;8.33;90.47;100581.53;6060524;28;20477;-66
2022/05/30 04:37:09;;;;;;;8.23;2.70;;;;;;;8.42;90.95;100586.97;6062654;28;20061;-66
2022/05/30 04:40:06;;;;;;;6.03;1.97;;;;;;;8.41;90.59;100567.63;6049420;28;20065;-66
2022/05/30 04:43:01;;;;;;;9.65;2.20;;;;;;;8.52;91.13;100574.59;6050216;28;20096;-67
2022/05/30 04:46:13;;;;;;;7.30;1.93;;;;;;;8.50;90.63;100585.31;6055079;28;20041;-66
2022/05/30 04:49:08;;;;;;;9.30;1.70;;;;;;;8.64;90.15;100589.38;6049293;28;20040;-65
2022/05/30 04:52:04;;;;;;;5.93;2.13;;;;;;;8.53;89.69;100587.69;6055326;28;20034;-67
2022/05/30 04:55:00;;;;;;;6.45;1.15;;;;;;;8.71;89.67;100585.22;6057216;28;20057;-67
2022/05/30 04:57:55;;;;;;;9.50;1.40;;;;;;;8.78;89.17;100596.88;6049440;28;20077;-67
2022/05/30 05:00:59;;;;;;;5.20;1.93;;;;;;;8.93;87.78;100608.75;6054995;28;20056;-66
2022/05/30 05:03:54;;;;;;;9.38;1.55;;;;;;;8.91;87.98;100589.56;6056026;28;20037;-66
2022/05/30 05:06:50;;;;;;;5.60;1.47;;;;;;;8.96;87.35;100597.91;6050194;28;20374;-67
2022/05/30 05:09:51;;;;;;;6.17;1.73;;;;;;;9.12;86.47;100600.81;6052997;28;20026;-67
2022/05/30 05:12:46;;;;;;;4.50;1.30;;;;;;;9.09;86.38;100611.69;6051067;28;20335;-67
2022/05/30 05:15:41;;;;;;;9.13;1.47;;;;;;;9.04;86.11;100608.63;6054792;28;20042;-66
2022/05/30 05:18:37;;;;;;;7.53;2.07;;;;;;;9.24;86.01;100607.63;6048933;28;20049;-66
2022/05/30 05:21:35;;;;;;;7.50;1.93;;;;;;;9.34;85.18;100602.34;6055892;28;20061;-66
2022/05/30 05:24:30;;;;;;;10.48;2.20;;;;;;;9.42;84.75;100603.31;6053329;28;20030;-66
2022/05/30 05:27:25;;;;;;;9.40;2.00;;;;;;;9.63;84.17;100599.63;6049187;28;20069;-68
2022/05/30 05:30:20;;;;;;;5.03;1.80;;;;;;;9.58;83.26;100600.06;6058984;28;20396;-67
2022/05/30 05:33:17;;;;;;;9.60;1.90;;;;;;;9.54;82.95;100601.31;6054152;28;20033;-67
2022/05/30 05:36:21;;;;;;;7.43;1.50;;;;;;;9.58;83.13;100608.84;6063799;28;20025;-67
2022/05/30 05:39:17;;;;;;;5.68;2.17;;;;;;;9.63;82.77;100600.47;6056425;28;20040;-66
2022/05/30 05:42:12;;;;;;;5.88;1.75;;;;;;;9.70;82.76;100603.41;6060214;28;20421;-66
2022/05/30 05:45:08;;;;;;;5.13;1.90;;;;;;;9.65;82.22;100608.31;6058123;28;20037;-66
2022/05/30 05:48:04;;;;;;;10.55;2.13;;;;;;;9.72;82.34;100610.22;6060467;28;20044;-67
2022/05/30 05:51:03;;;;;;;6.07;1.60;;;;;;;9.94;81.67;100614.34;6054434;28;20026;-66
2022/05/30 05:53:59;;;;;;;3.40;1.85;;;;;;;9.85;82.05;100607.25;6049858;28;20030;-67
2022/05/30 05:56:54;;;;;;;4.63;1.67;;;;;;;10.19;81.60;100619.03;6050637;28;20109;-66
2022/05/30 05:59:49;;;;;;;8.23;2.47;;;;;;;9.88;80.10;100612.25;6053186;28;20057;-67
2022/05/30 06:02:45;;;;;;;9.13;2.40;;;;;;;10.00;79.66;100621.72;6053796;28;20315;-66
2022/05/30 06:05:40;;;;;;;6.03;2.03;;;;;;;10.05;79.90;100619.47;6051057;28;20029;-67
2022/05/30 06:08:36;;;;;;;6.43;1.80;;;;;;;10.23;78.59;100627.50;6053134;28;20041;-66
2022/05/30 06:11:32;;;;;;;6.72;1.90;;;;;;;10.19;77.16;100616.38;6052310;28;20504;-67
2022/05/30 06:14:27;;;;;;;15.52;2.75;;;;;;;10.11;76.95;100613.56;6050767;28;20041;-66
2022/05/30 06:17:22;;;;;;;6.43;2.00;;;;;;;10.09;76.78;100623.47;6050889;28;20062;-66
2022/05/30 06:20:18;;;;;;;8.30;1.63;;;;;;;10.15;76.44;100628.25;6049555;28;20368;-66
2022/05/30 06:23:13;;;;;;;7.90;2.20;;;;;;;10.26;74.93;100613.97;6050248;28;20088;-67
2022/05/30 06:26:09;;;;;;;10.83;1.53;;;;;;;10.43;73.86;100621.16;6050613;28;20494;-66
2022/05/30 06:29:04;;;;;;;6.50;1.67;;;;;;;10.53;72.69;100611.31;6052905;28;20037;-67
2022/05/30 06:32:00;;;;;;;6.13;1.40;;;;;;;10.72;72.61;100612.03;6053163;28;20535;-66
2022/05/30 06:34:56;;;;;;;4.93;1.33;;;;;;;11.01;72.59;100626.91;6051932;28;20273;-66
2022/05/30 06:37:51;;;;;;;5.95;1.60;;;;;;;11.32;70.19;100617.59;6049107;28;20285;-66
2022/05/30 06:40:46;;;;;;;5.40;1.63;;;;;;;11.19;70.29;100607.38;6050017;28;20049;-67
2022/05/30 06:43:42;;;;;;;8.37;1.70;;;;;;;11.62;69.22;100617.16;6048438;28;20105;-68
2022/05/30 06:46:38;;;;;;;3.70;1.38;;;;;;;11.41;70.02;100622.00;6050925;28;20034;-67
2022/05/30 06:49:33;;;;;;;3.30;1.27;;;;;;;11.46;67.91;100616.22;6061657;28;20037;-67
2022/05/30 06:52:29;;;;;;;6.15;1.33;;;;;;;11.22;68.52;100627.47;6059366;28;20080;-67
2022/05/30 06:55:24;;;;;;;6.10;1.17;;;;;;;11.31;69.41;100629.19;6063626;28;20543;-66
2022/05/30 06:58:20;;;;;;;7.03;1.07;;;;;;;11.02;68.91;100624.13;6057289;28;20042;-67
2022/05/30 07:01:15;;;;;;;3.22;0.95;;;;;;;11.08;69.20;100628.00;6066447;28;20393;-66
2022/05/30 07:04:10;;;;;;;6.73;1.37;;;;;;;11.24;67.81;100636.09;6055953;28;20037;-66
2022/05/30 07:07:07;;;;;;;5.90;1.10;;;;;;;11.31;67.69;100645.13;6054873;28;20037;-66
2022/05/30 07:10:03;;;;;;;7.25;1.02;;;;;;;11.58;66.64;100642.34;6054480;28;20037;-67
2022/05/30 07:12:59;;;;;;;2.97;0.68;;;;;;;11.74;66.57;100636.38;6055754;28;20397;-67
2022/05/30 07:15:55;;;;;;;3.45;0.85;;;;;;;11.76;65.82;100640.56;6058994;28;20033;-67
2022/05/30 07:18:50;;;;;;;4.22;1.08;;;;;;;11.88;65.30;100638.44;6063157;28;20124;-67
2022/05/30 07:21:45;;;;;;;4.73;0.80;;;;;;;12.11;65.81;100638.78;6057966;28;20037;-67
2022/05/30 07:24:40;;;;;;;6.87;1.00;;;;;;;11.99;64.84;100640.84;6059280;28;20030;-67
2022/05/30 07:27:36;;;;;;;3.70;0.93;;;;;;;12.07;65.55;100638.25;6057984;28;20291;-67
2022/05/30 07:30:34;;;;;;;3.20;1.10;;;;;;;11.66;64.88;100639.75;6055869;28;20188;-66
2022/05/30 07:33:30;;;;;;;6.93;1.30;;;;;;;11.43;67.29;100653.69;6055242;28;20281;-65
2022/05/30 07:36:30;;;;;;;5.25;1.00;;;;;;;11.30;67.72;100646.13;6059122;28;20127;-66
2022/05/30 07:39:25;;;;;;;2.55;0.98;;;;;;;11.32;68.46;100650.28;6058783;28;20034;-66
2022/05/30 07:42:21;;;;;;;4.35;1.30;;;;;;;11.21;68.96;100657.63;6060552;28;20088;-67
2022/05/30 07:45:16;;;;;;;5.85;1.27;;;;;;;11.21;69.09;100653.16;6064128;28;20033;-67
2022/05/30 07:48:11;;;;;;;9.05;1.42;;;;;;;11.20;69.73;100653.31;6058603;28;20055;-66
2022/05/30 07:51:08;;;;;;;6.17;1.10;;;;;;;11.21;68.89;100655.81;6057598;28;20048;-66
2022/05/30 07:54:04;;;;;;;4.97;0.93;;;;;;;11.16;67.22;100652.78;6045820;28;20034;-66
2022/05/30 07:56:59;;;;;;;4.25;0.73;;;;;;;11.39;67.78;100662.97;6043246;28;20041;-66
2022/05/30 07:59:54;;;;;;;3.70;0.87;;;;;;;11.24;66.90;100660.00;6050372;28;20038;-66
2022/05/30 08:02:52;;;;;;;5.73;1.07;;;;;;;11.32;66.85;100662.72;6057264;28;20481;-67
2022/05/30 08:05:48;;;;;;;7.35;1.25;;;;;;;11.15;66.29;100651.13;6052606;28;20037;-67
2022/05/30 08:08:44;;;;;;;2.03;0.70;;;;;;;11.42;65.84;100668.78;6049443;28;20521;-66
2022/05/30 08:11:39;;;;;;;3.70;0.63;;;;;;;11.64;64.98;100655.03;6048123;28;20037;-67
2022/05/30 08:14:35;;;;;;;3.40;0.80;;;;;;;11.96;63.96;100659.75;6058130;28;20531;-66
2022/05/30 08:17:30;;;;;;;3.25;0.80;;;;;;;11.61;63.08;100658.00;6058153;28;20273;-67
2022/05/30 08:20:27;;;;;;;1.25;0.70;;;;;;;11.91;64.30;100667.38;6049889;28;20440;-66
2022/05/30 08:23:23;;;;;;;2.28;0.55;;;;;;;11.36;63.95;100675.53;6064918;28;20381;-66
2022/05/30 08:26:19;;;;;;;2.55;0.73;;;;;;;11.22;65.21;100678.72;6057130;28;20034;-67
2022/05/30 08:29:14;;;;;;;2.70;0.80;;;;;;;10.96;66.29;100679.59;6054602;28;20041;-66
2022/05/30 08:32:10;;;;;;;5.57;0.57;;;;;;;10.85;65.65;100674.50;6062038;28;20079;-66
2022/05/30 08:35:07;;;;;;;4.47;0.88;;;;;;;10.81;66.63;100687.25;6057546;28;20168;-65
2022/05/30 08:38:03;;;;;;;1.55;0.80;;;;;;;10.67;66.49;100685.06;6055084;28;20037;-66
2022/05/30 08:44:13;;;;;;;5.53;0.90;;;;;;;10.41;67.80;100687.56;6054267;28;20038;-66
2022/05/30 08:47:20;;;;;;;4.27;1.07;;;;;;;10.44;68.09;100684.63;6060562;28;20033;-66
2022/05/30 08:50:54;;;;;;;;;;;;;;;10.61;67.28;100693.63;6046165;28;20411;-66
2022/05/30 08:54:13;;;;;;;5.05;0.80;;;;;;;10.53;67.11;100690.84;6077822;28;20515;-66
2022/05/30 08:57:18;;;;;;;2.88;0.90;;;;;;;10.48;68.23;100709.88;6075272;28;20510;-66
2022/05/30 09:00:34;;;;;;;3.95;1.10;;;;;;;10.57;68.52;100700.22;6052491;28;20038;-66
2022/05/30 09:03:35;;;;;;;6.03;1.33;;;;;;;10.77;68.79;100699.13;6047362;28;20038;-66
2022/05/30 09:06:31;;;;;;;4.85;0.85;;;;;;;10.67;68.83;100707.13;6049997;28;20081;-66
2022/05/30 09:09:33;;;;;;;7.80;1.45;;;;;;;10.55;69.26;100708.28;6050136;28;20128;-66
2022/05/30 09:12:42;;;;;;;7.30;1.10;;;;;;;10.72;69.26;100717.28;6083989;28;20030;-66
2022/05/30 09:16:09;;;;;;;6.30;1.20;;;;;;;10.73;69.67;100716.31;6053353;28;20385;-66
2022/05/30 09:19:08;;;;;;;2.60;1.00;;;;;;;10.83;69.21;100708.31;6053342;28;20038;-66
2022/05/30 09:22:05;;;;;;;8.88;1.30;;;;;;;11.05;68.69;100719.34;6052215;28;20092;-66
2022/05/30 09:28:15;;;;;;;7.20;1.75;;;;;;;12.05;65.20;100716.47;6053038;28;20041;-67
2022/05/30 09:31:41;;;;;;;4.25;1.40;;;;;;;11.98;62.84;100707.47;6054337;28;20026;-67
2022/05/30 09:34:41;;;;;;;;;;;;;;;12.25;63.01;100707.31;6065303;28;20069;-66
2022/05/30 09:37:38;;;;;;;7.85;1.35;;;;;;;11.71;63.94;100711.88;6056464;28;19968;-66
2022/05/30 09:40:40;;;;;;;4.95;1.10;;;;;;;11.41;64.89;100700.81;6051922;28;20037;-67
2022/05/30 09:44:01;;;;;;;4.10;1.08;;;;;;;11.87;64.21;100696.09;6057404;28;20092;-66
2022/05/30 09:46:59;;;;;;;5.63;1.50;;;;;;;11.83;65.44;100708.00;6053595;28;20113;-66
2022/05/30 09:49:55;;;;;;;3.53;1.20;;;;;;;11.47;65.77;100702.88;6059120;28;20047;-66
2022/05/30 09:52:50;;;;;;;4.90;1.33;;;;;;;11.54;65.44;100706.56;6051156;28;20026;-66
2022/05/30 09:55:51;;;;;;;6.33;1.53;;;;;;;11.79;65.59;100706.66;6053360;28;20029;-66
2022/05/30 09:58:49;;;;;;;5.05;1.30;;;;;;;11.42;66.14;100703.28;6057672;28;20044;-66
2022/05/30 10:01:49;;;;;;;6.20;1.50;;;;;;;11.37;67.80;100713.53;6055298;28;20417;-66
2022/05/30 10:04:45;;;;;;;;;;;;;;;11.62;67.70;100718.09;6047136;28;20116;-66
2022/05/30 10:07:52;;;;;;;5.73;1.77;;;;;;;11.83;67.51;100715.97;6053290;28;19920;-67
2022/05/30 10:10:52;;;;;;;5.53;2.20;;;;;;;11.89;65.75;100710.06;6052679;28;20116;-66
2022/05/30 10:13:48;;;;;;;5.97;1.40;;;;;;;11.92;63.56;100709.75;6052521;28;20541;-66
2022/05/30 10:16:45;;;;;;;5.20;1.40;;;;;;;12.01;64.23;100707.16;6053222;28;20503;-67
2022/05/30 10:19:47;;;;;;;6.07;1.52;;;;;;;12.43;63.79;100721.38;6052725;28;20065;-66
2022/05/30 10:30:17;;;;;;;5.50;1.50;;;;;;;13.26;59.92;100717.94;6051277;28;20042;-67
2022/05/30 10:33:27;;;;;;;3.03;1.20;;;;;;;13.54;58.64;100715.78;6050999;28;20029;-66
2022/05/30 10:36:41;;;;;;;9.90;3.22;;;;;;;13.91;57.20;100726.81;6054288;28;20044;-66
2022/05/30 10:39:57;;;;;;;4.82;1.20;;;;;;;13.90;56.38;100724.31;6051700;28;20165;-66
2022/05/30 10:43:02;;;;;;;5.05;1.35;;;;;;;14.16;57.51;100723.09;6053442;28;20030;-67
2022/05/30 10:46:04;;;;;;;3.90;1.27;;;;;;;14.05;57.76;100734.13;6091969;28;20033;-67
2022/05/30 10:49:09;;;;;;;5.20;1.42;;;;;;;13.75;58.39;100729.47;6092969;28;20392;-67
2022/05/30 10:52:31;;;;;;;7.28;1.35;;;;;;;13.56;57.19;100738.59;6062573;28;20045;-66
2022/05/30 10:55:33;;;;;;;4.10;1.33;;;;;;;13.41;58.38;100739.41;6067123;28;20030;-67
2022/05/30 10:58:33;;;;;;;5.00;1.30;;;;;;;13.09;59.40;100738.34;6083465;28;20034;-67
2022/05/30 11:01:38;;;;;;;5.03;1.48;;;;;;;12.85;61.60;100734.72;6049716;28;20041;-67
2022/05/30 11:04:48;;;;;;;6.03;1.63;;;;;;;12.96;62.06;100740.56;6050385;28;20037;-67
2022/05/30 11:07:53;;;;;;;6.63;1.70;;;;;;;13.07;60.53;100740.31;6050874;28;20448;-66
2022/05/30 11:10:59;;;;;;;5.93;1.83;;;;;;;12.95;60.02;100740.75;6059227;28;20096;-67
2022/05/30 11:14:10;;;;;;;4.70;1.40;;;;;;;13.05;62.47;100736.97;6065251;28;20040;-67
2022/05/30 11:17:20;;;;;;;3.92;1.30;;;;;;;13.10;60.27;100733.84;6050332;28;20112;-67
2022/05/30 11:20:24;;;;;;;4.85;1.25;;;;;;;13.53;59.57;100730.13;6071651;28;20037;-67
2022/05/30 11:23:20;;;;;;;6.65;1.55;;;;;;;14.13;57.03;100728.78;6050828;28;20497;-67
2022/05/30 11:26:35;;;;;;;3.42;1.48;;;;;;;14.32;54.36;100731.13;6054508;28;20026;-66
2022/05/30 11:29:53;;;;;;;6.57;1.73;;;;;;;14.39;55.54;100733.09;6066846;28;20045;-67
2022/05/30 11:33:11;;;;;;;4.22;1.75;;;;;;;14.54;55.09;100726.09;6064532;28;20193;-67
2022/05/30 11:36:26;;;;;;;6.97;1.45;;;;;;;14.36;55.06;100720.94;6056139;28;20135;-66
2022/05/30 11:39:27;;;;;;;5.22;1.58;;;;;;;14.24;56.44;100733.75;6050664;28;20030;-67
2022/05/30 11:42:52;;;;;;;4.00;1.38;;;;;;;14.15;56.14;100736.63;6054856;28;20493;-67
2022/05/30 11:45:57;;;;;;;3.88;1.00;;;;;;;14.07;55.66;100716.13;6093328;28;20034;-67
2022/05/30 11:48:58;;;;;;;6.22;1.60;;;;;;;13.64;58.56;100722.63;6055807;28;20045;-66
2022/05/30 11:51:54;;;;;;;11.82;3.65;;;;;;;13.75;56.99;100733.97;6080200;28;20070;-67
2022/05/30 11:55:19;;;;;;;7.45;3.15;;;;;;;13.19;59.18;100729.38;6049338;28;20040;-66
2022/05/30 11:58:25;;;;;;;5.00;0.95;;;;;;;13.06;61.71;100733.31;6053752;28;20038;-68
2022/05/30 12:01:21;;;;;;;5.28;1.50;;;;;;;13.13;61.28;100732.72;6047814;28;20065;-66
2022/05/30 12:04:36;;;;;;;7.70;2.33;;;;;;;13.36;62.13;100745.25;6049687;28;20056;-67
2022/05/30 12:07:50;;;;;;;4.35;1.40;;;;;;;13.32;60.41;100737.72;6064810;28;20116;-66
2022/05/30 12:11:17;;;;;;;3.60;1.27;;;;;;;13.40;59.70;100743.09;6063875;28;20493;-67
2022/05/30 12:14:34;;;;;;;4.07;1.60;;;;;;;13.26;59.91;100733.06;6067043;28;20582;-67
2022/05/30 12:24:37;;;;;;;4.18;1.25;;;;;;;13.80;59.51;100742.31;6048333;28;20073;-66
2022/05/30 12:27:35;;;;;;;6.30;1.80;;;;;;;13.69;57.54;100743.47;6048923;28;20034;-66
2022/05/30 12:30:33;;;;;;;3.53;0.98;;;;;;;13.81;57.44;100746.63;6062257;28;20033;-67
2022/05/30 12:33:28;;;;;;;3.78;0.68;;;;;;;13.73;56.04;100747.44;6062489;28;20025;-66
2022/05/30 12:36:23;;;;;;;2.30;0.60;;;;;;;13.65;54.79;100748.28;6049388;28;20484;-67
2022/05/30 12:39:33;;;;;;;1.33;0.68;;;;;;;13.67;55.81;100745.44;6053213;28;20106;-67
2022/05/30 12:42:39;;;;;;;4.53;0.88;;;;;;;13.83;55.80;100758.81;6056947;28;20048;-67
2022/05/30 12:45:36;;;;;;;2.33;0.70;;;;;;;14.10;54.34;100758.47;6053049;28;20436;-67
2022/05/30 12:48:34;;;;;;;6.20;1.52;;;;;;;14.23;54.01;100755.28;6057824;28;20033;-66
2022/05/30 12:51:35;;;;;;;4.50;1.20;;;;;;;14.51;53.58;100761.94;6053301;28;20038;-66
2022/05/30 12:54:37;;;;;;;6.18;1.00;;;;;;;14.65;54.45;100760.38;6053571;28;20072;-67
2022/05/30 12:57:34;;;;;;;2.35;0.80;;;;;;;14.58;55.33;100762.09;6053718;28;20057;-65
2022/05/30 13:00:35;;;;;;;6.18;1.17;;;;;;;14.41;55.40;100763.94;6052723;28;20088;-67
2022/05/30 13:03:34;;;;;;;2.35;0.73;;;;;;;15.05;52.88;100765.63;6054127;28;20516;-67
2022/05/30 13:06:30;;;;;;;3.90;1.00;;;;;;;14.93;52.00;100758.97;6052645;28;20034;-67
2022/05/30 13:09:33;;;;;;;3.05;1.27;;;;;;;14.49;53.34;100765.75;6053571;28;20037;-66
2022/05/30 13:12:52;;;;;;;4.32;1.02;;;;;;;14.38;54.26;100761.63;6058345;28;20040;-67
2022/05/30 13:15:55;;;;;;;3.95;1.17;;;;;;;14.72;52.83;100758.72;6052407;28;20072;-67
2022/05/30 13:18:50;;;;;;;2.33;0.77;;;;;;;14.76;53.22;100755.53;6053788;28;20034;-67
2022/05/30 13:21:49;;;;;;;5.05;1.17;;;;;;;14.30;52.13;100757.09;6052284;28;20045;-67
2022/05/30 13:24:44;;;;;;;2.75;0.80;;;;;;;14.46;53.40;100761.59;6052969;28;20053;-67
2022/05/30 13:27:40;;;;;;;2.77;0.73;;;;;;;14.41;52.84;100752.44;6055394;28;20420;-67
2022/05/30 13:30:36;;;;;;;3.42;0.90;;;;;;;14.77;52.69;100764.38;6052475;28;20261;-67
2022/05/30 13:33:47;;;;;;;2.38;0.80;;;;;;;14.49;53.05;100765.75;6051230;28;20050;-66
2022/05/30 13:36:42;;;;;;;2.92;0.95;;;;;;;14.61;54.30;100772.44;6052565;28;20037;-67
2022/05/30 13:39:44;;;;;;;3.93;1.17;;;;;;;14.88;54.53;100764.00;6052690;28;20444;-66
2022/05/30 13:42:47;;;;;;;8.38;1.38;;;;;;;14.58;53.79;100776.28;6051947;28;20109;-67
2022/05/30 13:45:45;;;;;;;2.63;1.02;;;;;;;14.42;54.90;100770.13;6052600;28;20050;-67
2022/05/30 13:48:40;;;;;;;4.20;1.20;;;;;;;14.64;54.06;100764.09;6052409;28;20041;-67
2022/05/30 13:51:43;;;;;;;5.70;1.50;;;;;;;15.08;51.69;100757.25;6051590;28;20065;-67
2022/05/30 13:54:43;;;;;;;4.00;1.30;;;;;;;15.41;50.43;100763.22;6052208;28;20026;-67
2022/05/30 13:57:41;;;;;;;2.92;1.05;;;;;;;15.39;50.51;100765.25;6051405;28;20038;-67
2022/05/30 14:00:36;;;;;;;3.63;1.27;;;;;;;15.31;49.38;100751.94;6051720;28;20041;-67
2022/05/30 14:03:32;;;;;;;4.00;1.20;;;;;;;15.59;50.45;100755.81;6052070;28;20034;-66
2022/05/30 14:06:36;;;;;;;2.92;0.90;;;;;;;15.88;50.48;100760.44;6052130;28;20041;-67
2022/05/30 14:09:31;;;;;;;3.22;1.08;;;;;;;16.24;46.83;100766.84;6059229;28;20056;-67
2022/05/30 14:12:33;;;;;;;2.58;1.10;;;;;;;15.91;46.41;100755.59;6051343;28;20034;-66
2022/05/30 14:15:31;;;;;;;3.25;1.20;;;;;;;17.15;45.59;100756.63;6051943;28;20038;-67
2022/05/30 14:18:47;;;;;;;4.22;1.05;;;;;;;17.58;44.40;100762.94;6051988;28;20025;-67
2022/05/30 14:21:50;;;;;;;4.00;1.52;;;;;;;16.43;48.44;100760.97;6051317;28;20034;-67
2022/05/30 14:24:59;;;;;;;4.85;1.42;;;;;;;16.30;47.37;100768.78;6054678;28;20073;-67
2022/05/30 14:27:55;;;;;;;3.63;0.93;;;;;;;16.39;47.67;100754.31;6057132;28;20497;-67